Time,TemperatureF,DewpointF,PressureIn,WindDirection,WindDirectionDegrees,WindSpeedMPH,WindSpeedGustMPH,Humidity,HourlyPrecipIn,Conditions,Clouds,dailyrainin,SoftwareType,DateUTC
2013-11-08 00:03:00,37.9,26.8,30.24,WSW,247,3.2,-999.0,64,-99.99,,,0.00,Acu-Link.com,2013-11-08 05:03:00,
2013-11-08 00:18:00,37.4,27.1,30.24,SW,225,3.2,-999.0,66,-99.99,,,0.00,Acu-Link.com,2013-11-08 05:18:00,
2013-11-08 00:33:00,37.2,26.9,30.23,SW,225,2.7,-999.0,66,-99.99,,,0.00,Acu-Link.com,2013-11-08 05:33:00,
2013-11-08 00:49:00,36.9,27.3,30.23,SW,225,4.7,-999.0,68,-99.99,,,0.00,Acu-Link.com,2013-11-08 05:49:00,
2013-11-08 01:04:00,36.3,27.1,30.23,West,270,7.3,-999.0,69,-99.99,,,0.00,Acu-Link.com,2013-11-08 06:04:00,
2013-11-08 01:19:00,36.3,27.5,30.23,SW,225,6.3,-999.0,70,-99.99,,,0.00,Acu-Link.com,2013-11-08 06:19:00,
2013-11-08 01:35:00,36.5,27.7,30.24,SSW,202,3.2,-999.0,70,-99.99,,,0.00,Acu-Link.com,2013-11-08 06:35:00,
2013-11-08 01:50:00,36.3,27.8,30.24,West,270,4.7,-999.0,71,-99.99,,,0.00,Acu-Link.com,2013-11-08 06:50:00,
2013-11-08 02:05:00,36.5,28.0,30.24,WSW,247,4.2,-999.0,71,-99.99,,,0.00,Acu-Link.com,2013-11-08 07:05:00,
2013-11-08 02:20:00,36.3,28.5,30.24,West,270,3.7,-999.0,73,-99.99,,,0.00,Acu-Link.com,2013-11-08 07:20:00,
2013-11-08 02:35:00,36.1,28.3,30.24,West,270,4.7,-999.0,73,-99.99,,,0.00,Acu-Link.com,2013-11-08 07:35:00,
2013-11-08 02:51:00,36.3,28.8,30.24,WSW,247,4.7,-999.0,74,-99.99,,,0.00,Acu-Link.com,2013-11-08 07:51:00,
2013-11-08 11:02:00,45.1,29.0,30.37,WSW,247,4.7,-999.0,53,-99.99,,,0.00,Acu-Link.com,2013-11-08 16:02:00,
2013-11-08 11:18:00,45.5,28.9,30.37,West,270,4.7,-999.0,52,-99.99,,,0.00,Acu-Link.com,2013-11-08 16:18:00,
2013-11-08 11:33:00,46.4,29.3,30.37,SW,225,2.7,-999.0,51,-99.99,,,0.00,Acu-Link.com,2013-11-08 16:33:00,
2013-11-08 11:48:00,47.7,29.0,30.36,NW,315,2.2,-999.0,48,-99.99,,,0.00,Acu-Link.com,2013-11-08 16:48:00,
2013-11-08 12:03:00,48.4,29.6,30.36,West,270,4.7,-999.0,48,-99.99,,,0.00,Acu-Link.com,2013-11-08 17:03:00,
2013-11-08 12:18:00,48.9,28.5,30.34,WNW,292,2.2,-999.0,45,-99.99,,,0.00,Acu-Link.com,2013-11-08 17:18:00,
2013-11-08 12:33:00,52.3,29.9,30.34,NNW,337,4.2,-999.0,42,-99.99,,,0.00,Acu-Link.com,2013-11-08 17:33:00,
2013-11-08 12:48:00,50.5,28.3,30.34,SW,225,2.2,-999.0,42,-99.99,,,0.00,Acu-Link.com,2013-11-08 17:48:00,
2013-11-08 13:04:00,50.7,29.6,30.33,WSW,247,6.3,-999.0,44,-99.99,,,0.00,Acu-Link.com,2013-11-08 18:04:00,
2013-11-08 13:19:00,51.1,28.8,30.32,West,270,7.3,-999.0,42,-99.99,,,0.00,Acu-Link.com,2013-11-08 18:19:00,
2013-11-08 13:34:00,50.5,28.3,30.33,WSW,247,4.7,-999.0,42,-99.99,,,0.00,Acu-Link.com,2013-11-08 18:34:00,
2013-11-08 13:49:00,50.7,29.0,30.32,WSW,247,1.7,-999.0,43,-99.99,,,0.00,Acu-Link.com,2013-11-08 18:49:00,
2013-11-08 14:04:00,52.0,30.2,30.31,WSW,247,4.2,-999.0,43,-99.99,,,0.00,Acu-Link.com,2013-11-08 19:04:00,
2013-11-08 14:19:00,51.1,29.4,30.32,WSW,247,5.8,-999.0,43,-99.99,,,0.00,Acu-Link.com,2013-11-08 19:19:00,
2013-11-08 14:35:00,52.2,29.8,30.32,WSW,247,4.2,-999.0,42,-99.99,,,0.00,Acu-Link.com,2013-11-08 19:35:00,
2013-11-08 14:50:00,53.6,29.9,30.31,West,270,2.7,-999.0,40,-99.99,,,0.00,Acu-Link.com,2013-11-08 19:50:00,
2013-11-08 15:12:00,55.9,30.0,30.31,WSW,247,0.0,-999.0,37,-99.99,,,0.00,Acu-Link.com,2013-11-08 20:12:00,
2013-11-08 15:27:00,51.6,28.7,30.30,West,270,3.7,-999.0,41,-99.99,,,0.00,Acu-Link.com,2013-11-08 20:27:00,
2013-11-08 15:42:00,51.3,30.1,30.30,West,270,2.7,-999.0,44,-99.99,,,0.00,Acu-Link.com,2013-11-08 20:42:00,
2013-11-08 15:57:00,50.9,28.0,30.29,WNW,292,3.7,-999.0,41,-99.99,,,0.00,Acu-Link.com,2013-11-08 20:57:00,
2013-11-08 16:12:00,50.7,28.5,30.29,SW,225,2.2,-999.0,42,-99.99,,,0.00,Acu-Link.com,2013-11-08 21:12:00,
2013-11-08 16:27:00,50.9,28.6,30.28,SW,225,4.7,-999.0,42,-99.99,,,0.00,Acu-Link.com,2013-11-08 21:27:00,
2013-11-08 16:42:00,52.2,29.8,30.27,WSW,247,1.7,-999.0,42,-99.99,,,0.00,Acu-Link.com,2013-11-08 21:42:00,
2013-11-08 16:58:00,51.6,31.0,30.27,WSW,247,0.0,-999.0,45,-99.99,,,0.00,Acu-Link.com,2013-11-08 21:58:00,
2013-11-08 17:14:00,50.4,29.3,30.28,SSW,202,0.0,-999.0,44,-99.99,,,0.00,Acu-Link.com,2013-11-08 22:14:00,
2013-11-08 17:29:00,48.9,29.0,30.28,NE,45,0.0,-999.0,46,-99.99,,,0.00,Acu-Link.com,2013-11-08 22:29:00,
2013-11-08 17:44:00,46.9,29.2,30.28,West,270,0.0,-999.0,50,-99.99,,,0.00,Acu-Link.com,2013-11-08 22:44:00,
2013-11-08 17:59:00,45.7,29.1,30.27,South,180,0.0,-999.0,52,-99.99,,,0.00,Acu-Link.com,2013-11-08 22:59:00,
2013-11-08 18:14:00,44.2,29.1,30.27,SW,225,0.0,-999.0,55,-99.99,,,0.00,Acu-Link.com,2013-11-08 23:14:00,
2013-11-08 18:29:00,43.3,29.5,30.28,SSE,157,0.0,-999.0,58,-99.99,,,0.00,Acu-Link.com,2013-11-08 23:29:00,
2013-11-08 18:44:00,42.3,29.8,30.27,South,180,0.0,-999.0,61,-99.99,,,0.00,Acu-Link.com,2013-11-08 23:44:00,
2013-11-08 18:59:00,41.5,27.8,30.27,SSE,157,0.0,-999.0,58,-99.99,,,0.00,Acu-Link.com,2013-11-08 23:59:00,
2013-11-08 19:15:00,41.0,28.2,30.27,SE,135,0.0,-999.0,60,-99.99,,,0.00,Acu-Link.com,2013-11-09 00:15:00,
2013-11-08 19:30:00,40.3,28.7,30.26,South,180,0.0,-999.0,63,-99.99,,,0.00,Acu-Link.com,2013-11-09 00:30:00,
2013-11-08 19:45:00,39.6,29.2,30.27,WSW,247,0.0,-999.0,66,-99.99,,,0.00,Acu-Link.com,2013-11-09 00:45:00,
2013-11-08 20:00:00,39.0,29.0,30.27,ENE,67,0.0,-999.0,67,-99.99,,,0.00,Acu-Link.com,2013-11-09 01:00:00,
2013-11-08 20:15:00,37.9,28.7,30.27,SE,135,0.0,-999.0,69,-99.99,,,0.00,Acu-Link.com,2013-11-09 01:15:00,
2013-11-08 20:31:00,38.1,28.8,30.26,ESE,112,0.0,-999.0,69,-99.99,,,0.00,Acu-Link.com,2013-11-09 01:31:00,
2013-11-08 20:46:00,38.3,28.7,30.26,SE,135,0.0,-999.0,68,-99.99,,,0.00,Acu-Link.com,2013-11-09 01:46:00,
2013-11-08 21:01:00,37.8,30.3,30.26,West,270,0.0,-999.0,74,-99.99,,,0.00,Acu-Link.com,2013-11-09 02:01:00,
2013-11-08 21:16:00,36.7,29.2,30.26,East,90,0.0,-999.0,74,-99.99,,,0.00,Acu-Link.com,2013-11-09 02:16:00,
2013-11-08 21:32:00,37.8,28.6,30.26,WSW,247,0.0,-999.0,69,-99.99,,,0.00,Acu-Link.com,2013-11-09 02:32:00,
2013-11-08 21:47:00,37.6,28.7,30.26,NE,45,0.0,-999.0,70,-99.99,,,0.00,Acu-Link.com,2013-11-09 02:47:00,
2013-11-08 22:02:00,37.0,29.8,30.26,SE,135,0.0,-999.0,75,-99.99,,,0.00,Acu-Link.com,2013-11-09 03:02:00,
2013-11-08 22:17:00,37.6,28.7,30.26,NNE,22,2.2,-999.0,70,-99.99,,,0.00,Acu-Link.com,2013-11-09 03:17:00,
2013-11-08 22:33:00,37.9,28.3,30.25,SSE,157,2.2,-999.0,68,-99.99,,,0.00,Acu-Link.com,2013-11-09 03:33:00,
2013-11-08 22:48:00,37.9,28.7,30.24,East,90,0.0,-999.0,69,-99.99,,,0.00,Acu-Link.com,2013-11-09 03:48:00,
2013-11-08 23:03:00,37.9,28.3,30.24,East,90,0.0,-999.0,68,-99.99,,,0.00,Acu-Link.com,2013-11-09 04:03:00,
2013-11-08 23:18:00,37.8,27.8,30.24,NE,45,0.0,-999.0,67,-99.99,,,0.00,Acu-Link.com,2013-11-09 04:18:00,
2013-11-08 23:33:00,37.6,30.1,30.25,SSE,157,0.0,-999.0,74,-99.99,,,0.00,Acu-Link.com,2013-11-09 04:33:00,
2013-11-08 23:49:00,37.8,27.8,30.24,ENE,67,0.0,-999.0,67,-99.99,,,0.00,Acu-Link.com,2013-11-09 04:49:00,